createdAt,value
2018-06-01T00:01:14.619Z,22.20
2018-06-01T00:03:42.160Z,24.07
2018-06-01T00:06:09.740Z,25.80
2018-06-01T00:08:37.155Z,24.80
2018-06-01T00:11:04.724Z,24.00
2018-06-01T00:13:32.190Z,21.53
2018-06-01T00:15:59.724Z,22.50
2018-06-01T00:18:27.253Z,25.63
2018-06-01T00:20:54.727Z,24.20
2018-06-01T00:23:22.218Z,24.53
2018-06-01T00:25:49.689Z,24.90
2018-06-01T00:28:17.144Z,24.43
2018-06-01T00:30:44.615Z,22.27
2018-06-01T00:33:12.177Z,21.27
2018-06-01T00:35:39.742Z,21.90
2018-06-01T00:38:07.199Z,20.87
2018-06-01T00:40:34.665Z,22.90
2018-06-01T00:43:02.119Z,22.43
2018-06-01T00:45:29.582Z,20.60
2018-06-01T00:47:57.131Z,22.57
2018-06-01T00:50:24.692Z,19.90
2018-06-01T00:52:52.155Z,16.80
2018-06-01T00:55:24.467Z,15.97
2018-06-01T00:57:52.692Z,17.30
2018-06-01T01:00:20.152Z,18.73
2018-06-01T01:02:47.610Z,19.40
2018-06-01T01:05:15.188Z,17.40
2018-06-01T01:07:42.647Z,18.53
2018-06-01T01:10:10.120Z,16.27
2018-06-01T01:12:38.370Z,15.97
2018-06-01T01:15:05.840Z,16.60
2018-06-01T01:17:33.355Z,15.27
2018-06-01T01:20:00.852Z,14.00
2018-06-01T01:22:28.318Z,15.37
2018-06-01T01:24:55.864Z,16.20
2018-06-01T01:27:23.329Z,13.60
2018-06-01T01:29:50.882Z,13.80
2018-06-01T01:32:18.343Z,13.23
2018-06-01T01:34:45.814Z,12.70
2018-06-01T01:37:13.373Z,12.97
2018-06-01T01:39:40.945Z,14.57
2018-06-01T01:42:08.387Z,14.17
2018-06-01T01:44:35.852Z,13.47
2018-06-01T01:47:03.469Z,15.43
2018-06-01T01:49:30.935Z,14.80
2018-06-01T01:51:58.425Z,14.93
2018-06-01T01:54:25.903Z,16.63
2018-06-01T01:56:53.434Z,17.27
2018-06-01T01:59:20.906Z,15.53
2018-06-01T02:01:48.367Z,16.00
2018-06-01T02:04:15.856Z,16.50
2018-06-01T02:06:44.078Z,16.40
2018-06-01T02:09:11.541Z,15.77
2018-06-01T02:11:40.420Z,16.17
2018-06-01T02:14:07.884Z,15.97
2018-06-01T02:16:35.359Z,16.53
2018-06-01T02:19:02.815Z,14.30
2018-06-01T02:21:30.288Z,14.80
2018-06-01T02:23:57.742Z,16.70
2018-06-01T02:26:25.203Z,17.77
2018-06-01T02:28:52.660Z,16.60
2018-06-01T02:31:20.214Z,16.70
2018-06-01T02:33:47.671Z,17.20
2018-06-01T02:36:15.135Z,16.50
2018-06-01T02:38:42.593Z,18.20
2018-06-01T02:41:10.140Z,15.80
2018-06-01T02:43:37.599Z,17.50
2018-06-01T02:46:05.077Z,18.50
2018-06-01T02:48:32.537Z,16.60
2018-06-01T02:51:00.089Z,15.73
2018-06-01T02:53:27.655Z,15.93
2018-06-01T02:56:10.159Z,17.00
2018-06-01T02:58:37.728Z,16.90
2018-06-01T03:01:05.192Z,19.40
2018-06-01T03:03:32.741Z,16.67
2018-06-01T03:06:00.292Z,17.63
2018-06-01T03:08:27.751Z,17.27
2018-06-01T03:10:55.224Z,16.83
2018-06-01T03:13:22.776Z,17.27
2018-06-01T03:15:50.243Z,18.63
2018-06-01T03:18:17.709Z,17.07
2018-06-01T03:20:45.164Z,15.60
2018-06-01T03:23:12.635Z,17.30
2018-06-01T03:25:40.868Z,18.83
2018-06-01T03:28:08.328Z,18.30
2018-06-01T03:30:35.791Z,19.17
2018-06-01T03:33:03.260Z,17.57
2018-06-01T03:35:30.725Z,19.33
2018-06-01T03:37:58.182Z,17.40
2018-06-01T03:40:25.646Z,18.87
2018-06-01T03:42:53.194Z,18.30
2018-06-01T03:45:20.655Z,19.20
2018-06-01T03:47:48.212Z,17.50
2018-06-01T03:50:15.676Z,18.70
2018-06-01T03:52:43.136Z,17.30
2018-06-01T03:55:10.600Z,18.10
2018-06-01T03:57:38.055Z,21.10
2018-06-01T04:00:05.528Z,18.30
2018-06-01T04:02:32.983Z,17.73
2018-06-01T04:05:00.527Z,19.50
2018-06-01T04:07:27.988Z,19.27
2018-06-01T04:09:55.547Z,18.23
2018-06-01T04:12:23.003Z,20.27
2018-06-01T04:14:50.742Z,19.13
2018-06-01T04:17:18.197Z,19.97
2018-06-01T04:19:45.874Z,22.13
2018-06-01T04:22:13.333Z,20.07
2018-06-01T04:24:40.815Z,20.20
2018-06-01T04:27:08.363Z,20.53
2018-06-01T04:29:35.821Z,20.53
2018-06-01T04:32:03.291Z,19.70
2018-06-01T04:34:30.743Z,19.77
2018-06-01T04:36:58.211Z,19.97
2018-06-01T04:39:25.675Z,20.40
2018-06-01T04:41:53.936Z,21.47
2018-06-01T04:44:21.397Z,21.73
2018-06-01T04:46:48.850Z,20.03
2018-06-01T04:49:16.384Z,20.27
2018-06-01T04:51:43.862Z,20.63
2018-06-01T04:54:11.302Z,19.67
2018-06-01T04:56:38.796Z,20.30
2018-06-01T04:59:06.338Z,20.50
2018-06-01T05:01:33.812Z,20.83
2018-06-01T05:04:01.266Z,19.13
2018-06-01T05:06:28.827Z,21.40
2018-06-01T05:08:56.400Z,19.73
2018-06-01T05:11:23.960Z,19.80
2018-06-01T05:13:51.507Z,21.03
2018-06-01T05:16:18.983Z,18.37
2018-06-01T05:18:46.435Z,19.47
2018-06-01T05:21:13.992Z,19.23
2018-06-01T05:23:41.437Z,21.53
2018-06-01T05:26:08.921Z,21.80
2018-06-01T05:28:36.478Z,18.73
2018-06-01T05:31:04.738Z,19.60
2018-06-01T05:33:32.195Z,19.60
2018-06-01T05:35:59.808Z,19.50
2018-06-01T05:38:27.217Z,20.73
2018-06-01T05:40:54.683Z,18.50
2018-06-01T05:43:22.169Z,19.93
2018-06-01T05:45:50.469Z,20.10
2018-06-01T05:48:17.928Z,20.97
2018-06-01T05:50:45.432Z,18.30
2018-06-01T05:53:13.092Z,19.77
2018-06-01T05:55:40.563Z,18.17
2018-06-01T05:58:08.026Z,19.40
2018-06-01T06:00:35.488Z,18.90
2018-06-01T06:03:02.953Z,19.13
2018-06-01T06:05:30.415Z,17.37
2018-06-01T06:07:57.863Z,18.10
2018-06-01T06:10:25.335Z,17.33
2018-06-01T06:12:54.316Z,17.17
2018-06-01T06:15:21.784Z,16.60
2018-06-01T06:17:49.274Z,18.67
2018-06-01T06:20:16.689Z,17.97
2018-06-01T06:22:44.171Z,18.73
2018-06-01T06:25:12.387Z,19.60
2018-06-01T06:27:39.847Z,20.33
2018-06-01T06:30:07.312Z,21.30
2018-06-01T06:32:34.779Z,22.57
2018-06-01T06:35:02.248Z,22.60
2018-06-01T06:37:29.725Z,23.83
2018-06-01T06:39:57.187Z,23.67
2018-06-01T06:42:24.643Z,24.70
2018-06-01T06:44:52.102Z,24.30
2018-06-01T06:47:19.567Z,27.03
2018-06-01T06:49:47.787Z,27.13
2018-06-01T06:52:15.273Z,29.07
2018-06-01T06:54:42.717Z,26.43
2018-06-01T06:57:10.186Z,29.20
2018-06-01T06:59:37.647Z,29.23
2018-06-01T07:02:05.131Z,29.33
2018-06-01T07:04:32.584Z,27.40
2018-06-01T07:07:00.051Z,28.07
2018-06-01T07:09:27.498Z,29.63
2018-06-01T07:11:54.968Z,29.57
2018-06-01T07:14:23.199Z,28.20
2018-06-01T07:16:50.664Z,31.67
2018-06-01T07:19:18.122Z,30.97
2018-06-01T07:21:45.591Z,31.60
2018-06-01T07:24:13.042Z,32.77
2018-06-01T07:26:40.515Z,31.57
2018-06-01T07:29:07.984Z,29.80
2018-06-01T07:31:35.443Z,29.60
2018-06-01T07:34:02.907Z,33.20
2018-06-01T07:36:30.369Z,32.60
2018-06-01T07:38:57.831Z,32.70
2018-06-01T07:41:26.058Z,30.50
2018-06-01T07:43:53.520Z,30.07
2018-06-01T07:46:20.982Z,31.40
2018-06-01T07:48:48.438Z,32.17
2018-06-01T07:51:15.983Z,30.17
2018-06-01T07:53:43.433Z,31.20
2018-06-01T07:56:10.913Z,31.40
2018-06-01T07:58:38.371Z,33.77
2018-06-01T08:01:05.832Z,31.80
2018-06-01T08:03:33.343Z,35.73
2018-06-01T08:06:00.751Z,32.47
2018-06-01T08:08:28.211Z,33.87
2018-06-01T08:10:55.719Z,33.63
2018-06-01T08:13:23.174Z,33.57
2018-06-01T08:15:51.390Z,32.80
2018-06-01T08:18:18.855Z,30.60
2018-06-01T08:20:46.321Z,35.47
2018-06-01T08:23:13.787Z,37.27
2018-06-01T08:25:41.249Z,33.13
2018-06-01T08:28:08.708Z,34.17
2018-06-01T08:30:36.167Z,35.10
2018-06-01T08:33:03.640Z,37.43
2018-06-01T08:35:31.095Z,34.90
2018-06-01T08:37:58.564Z,35.00
2018-06-01T08:40:26.019Z,35.77
2018-06-01T08:42:53.479Z,35.80
2018-06-01T08:45:20.937Z,33.77
2018-06-01T08:47:48.400Z,34.47
2018-06-01T08:50:15.858Z,35.60
2018-06-01T08:52:43.328Z,35.10
2018-06-01T08:55:11.560Z,36.77
2018-06-01T08:57:39.024Z,38.00
2018-06-01T09:00:06.482Z,36.70
2018-06-01T09:02:33.944Z,37.53
2018-06-01T09:05:01.516Z,37.43
2018-06-01T09:07:29.067Z,33.70
2018-06-01T09:09:56.546Z,35.87
2018-06-01T09:12:24.106Z,33.77
2018-06-01T09:14:51.561Z,32.40
2018-06-01T09:17:19.831Z,30.57
2018-06-01T09:19:48.804Z,29.93
2018-06-01T09:22:16.350Z,34.00
2018-06-01T09:24:43.743Z,31.97
2018-06-01T09:27:11.216Z,33.37
2018-06-01T09:29:38.670Z,36.00
2018-06-01T09:32:06.135Z,36.00
2018-06-01T09:34:33.588Z,35.37
2018-06-01T09:37:01.046Z,35.40
2018-06-01T09:39:28.510Z,35.70
2018-06-01T09:41:55.972Z,33.50
2018-06-01T09:44:23.431Z,25.33
2018-06-01T09:46:50.891Z,11.03
2018-06-01T09:49:18.355Z,21.10
2018-06-01T09:51:46.590Z,18.97
2018-06-01T09:54:14.039Z,19.23
2018-06-01T09:56:41.510Z,22.87
2018-06-01T09:59:08.974Z,22.20
2018-06-01T10:01:36.440Z,22.10
2018-06-01T10:04:03.899Z,23.93
2018-06-01T10:06:31.362Z,23.70
2018-06-01T10:08:58.819Z,24.33
2018-06-01T10:11:26.281Z,28.67
2018-06-01T10:13:53.748Z,31.27
2018-06-01T10:16:21.198Z,33.70
2018-06-01T10:18:48.670Z,30.13
2018-06-01T10:21:16.126Z,30.57
2018-06-01T10:23:43.600Z,31.07
2018-06-01T10:26:11.832Z,29.57
2018-06-01T10:28:39.299Z,29.83
2018-06-01T10:31:06.774Z,24.67
2018-06-01T10:33:34.236Z,22.77
2018-06-01T10:36:01.700Z,21.60
2018-06-01T10:38:29.923Z,22.00
2018-06-01T10:40:57.395Z,19.30
2018-06-01T10:43:24.849Z,17.13
2018-06-01T10:45:52.303Z,17.17
2018-06-01T10:48:19.775Z,17.73
2018-06-01T10:50:47.254Z,19.03
2018-06-01T10:53:14.715Z,19.60
2018-06-01T10:55:42.186Z,20.80
2018-06-01T10:58:10.428Z,18.93
2018-06-01T11:00:37.887Z,20.53
2018-06-01T11:03:05.366Z,18.53
2018-06-01T11:05:32.821Z,19.57
2018-06-01T11:08:00.290Z,18.97
2018-06-01T11:10:27.759Z,18.40
2018-06-01T11:12:55.978Z,17.53
2018-06-01T11:15:23.440Z,18.83
2018-06-01T11:17:50.907Z,20.40
2018-06-01T11:20:18.371Z,18.60
2018-06-01T11:22:46.008Z,16.27
2018-06-01T11:25:13.499Z,16.67
2018-06-01T11:27:40.994Z,14.73
2018-06-01T11:30:09.215Z,13.37
2018-06-01T11:32:36.691Z,13.90
2018-06-01T11:35:04.150Z,12.40
2018-06-01T11:37:31.617Z,10.90
2018-06-01T11:39:59.167Z,13.30
2018-06-01T11:42:26.640Z,10.33
2018-06-01T11:44:54.098Z,10.60
2018-06-01T11:47:21.571Z,11.43
2018-06-01T11:49:49.031Z,10.93
2018-06-01T11:52:17.258Z,11.13
2018-06-01T11:54:44.748Z,10.60
2018-06-01T11:57:12.208Z,9.40
2018-06-01T11:59:39.772Z,11.73
2018-06-01T12:02:07.323Z,11.50
2018-06-01T12:04:34.788Z,13.30
2018-06-01T12:07:02.254Z,11.67
2018-06-01T12:09:29.711Z,12.30
2018-06-01T12:11:57.163Z,12.17
2018-06-01T12:14:24.628Z,11.20
2018-06-01T12:16:52.083Z,11.77
2018-06-01T12:19:19.549Z,12.10
2018-06-01T12:21:47.007Z,11.67
2018-06-01T12:24:14.483Z,11.50
2018-06-01T12:26:42.728Z,10.00
2018-06-01T12:29:10.392Z,10.90
2018-06-01T12:31:38.544Z,10.87
2018-06-01T12:34:06.003Z,10.30
2018-06-01T12:36:33.463Z,11.47
2018-06-01T12:39:00.932Z,11.17
2018-06-01T12:41:28.391Z,11.40
2018-06-01T12:43:55.856Z,11.97
2018-06-01T12:46:23.316Z,13.97
2018-06-01T12:48:50.877Z,12.83
2018-06-01T12:51:18.344Z,13.53
2018-06-01T12:53:45.807Z,13.77
2018-06-01T12:56:13.261Z,13.00
2018-06-01T12:58:42.239Z,12.47
2018-06-01T13:01:09.699Z,11.77
2018-06-01T13:03:37.164Z,12.90
2018-06-01T13:06:04.717Z,12.57
2018-06-01T13:08:32.187Z,11.90
2018-06-01T13:10:59.651Z,12.80
2018-06-01T13:13:27.203Z,10.60
2018-06-01T13:15:54.662Z,12.10
2018-06-01T13:18:22.225Z,13.17
2018-06-01T13:20:49.847Z,11.03
2018-06-01T13:23:17.243Z,11.77
2018-06-01T13:25:44.798Z,12.07
2018-06-01T13:28:12.364Z,11.10
2018-06-01T13:30:39.824Z,12.40
2018-06-01T13:33:07.293Z,10.70
2018-06-01T13:35:34.755Z,12.00
2018-06-01T13:38:02.308Z,12.20
2018-06-01T13:40:29.765Z,11.40
2018-06-01T13:42:57.232Z,11.47
2018-06-01T13:45:24.693Z,12.83
2018-06-01T13:47:52.234Z,13.43
2018-06-01T13:50:19.691Z,11.50
2018-06-01T13:52:47.187Z,12.57
2018-06-01T13:55:15.424Z,12.50
2018-06-01T13:57:42.906Z,13.47
2018-06-01T14:00:10.363Z,13.13
2018-06-01T14:02:37.823Z,14.30
2018-06-01T14:05:05.366Z,12.10
2018-06-01T14:07:32.924Z,12.60
2018-06-01T14:10:10.879Z,13.17
2018-06-01T14:12:38.330Z,13.87
2018-06-01T14:15:06.667Z,12.47
2018-06-01T14:17:34.126Z,13.60
2018-06-01T14:20:03.103Z,13.70
2018-06-01T14:22:30.561Z,13.33
2018-06-01T14:24:58.036Z,13.40
2018-06-01T14:27:25.499Z,14.50
2018-06-01T14:29:53.143Z,14.70
2018-06-01T14:32:20.990Z,14.90
2018-06-01T14:34:49.223Z,15.60
2018-06-01T14:37:16.841Z,13.20
2018-06-01T14:39:44.524Z,12.63
2018-06-01T14:42:12.082Z,12.90
2018-06-01T14:44:39.656Z,12.90
2018-06-01T14:47:07.370Z,13.00
2018-06-01T14:49:35.671Z,12.60
2018-06-01T14:52:03.128Z,12.50
2018-06-01T14:54:30.621Z,12.00
2018-06-01T14:56:58.055Z,14.80
2018-06-01T14:59:25.534Z,12.30
2018-06-01T15:01:53.066Z,13.10
2018-06-01T15:04:20.467Z,11.63
2018-06-01T15:06:47.941Z,11.23
2018-06-01T15:09:16.178Z,11.87
2018-06-01T15:11:43.646Z,12.77
2018-06-01T15:14:11.114Z,12.77
2018-06-01T15:16:38.651Z,13.53
2018-06-01T15:19:06.211Z,12.63
2018-06-01T15:21:33.673Z,11.67
2018-06-01T15:24:01.141Z,13.33
2018-06-01T15:26:28.599Z,12.10
2018-06-01T15:28:56.061Z,12.60
2018-06-01T15:31:23.520Z,13.13
2018-06-01T15:33:51.091Z,14.00
2018-06-01T15:36:18.526Z,14.03
2018-06-01T15:38:45.998Z,13.20
2018-06-01T15:41:13.463Z,13.27
2018-06-01T15:43:41.003Z,13.50
2018-06-01T15:46:09.766Z,15.00
2018-06-01T15:48:37.253Z,14.03
2018-06-01T15:51:04.727Z,16.37
2018-06-01T15:53:32.195Z,15.20
2018-06-01T15:56:00.440Z,16.70
2018-06-01T15:58:27.899Z,14.43
2018-06-01T16:00:55.356Z,14.00
2018-06-01T16:03:22.815Z,14.00
2018-06-01T16:05:50.287Z,15.50
2018-06-01T16:08:17.766Z,14.97
2018-06-01T16:10:45.216Z,13.90
2018-06-01T16:13:12.675Z,14.37
2018-06-01T16:15:40.219Z,13.67
2018-06-01T16:18:07.775Z,14.40
2018-06-01T16:20:35.235Z,12.53
2018-06-01T16:23:02.703Z,14.70
2018-06-01T16:25:30.201Z,14.90
2018-06-01T16:27:57.675Z,14.90
2018-06-01T16:30:25.148Z,14.83
2018-06-01T16:32:52.646Z,15.10
2018-06-01T16:35:20.104Z,15.50
2018-06-01T16:37:48.084Z,14.77
2018-06-01T16:40:16.406Z,15.60
2018-06-01T16:42:43.895Z,14.17
2018-06-01T16:45:11.364Z,13.97
2018-06-01T16:47:39.067Z,14.43
2018-06-01T16:50:06.531Z,14.60
2018-06-01T16:52:34.015Z,13.70
2018-06-01T16:55:01.874Z,15.33
2018-06-01T16:57:29.399Z,13.80
2018-06-01T16:59:56.863Z,14.40
2018-06-01T17:02:25.227Z,17.20
2018-06-01T17:04:52.763Z,14.53
2018-06-01T17:07:20.229Z,14.83
2018-06-01T17:09:47.696Z,14.77
2018-06-01T17:12:15.247Z,16.30
2018-06-01T17:14:42.796Z,15.20
2018-06-01T17:17:10.263Z,16.10
2018-06-01T17:19:37.742Z,15.60
2018-06-01T17:22:05.287Z,15.43
2018-06-01T17:24:32.757Z,15.77
2018-06-01T17:27:00.216Z,15.10
2018-06-01T17:29:27.827Z,15.77
2018-06-01T17:31:55.544Z,15.90
2018-06-01T17:34:23.007Z,16.23
2018-06-01T17:36:50.536Z,15.10
2018-06-01T17:39:18.000Z,15.90
2018-06-01T17:41:45.531Z,16.03
2018-06-01T17:44:13.066Z,14.87
2018-06-01T17:46:41.290Z,15.93
2018-06-01T17:49:08.756Z,16.07
2018-06-01T17:51:36.315Z,16.53
2018-06-01T17:54:03.788Z,14.30
2018-06-01T17:56:31.335Z,16.30
2018-06-01T17:58:58.805Z,17.17
2018-06-01T18:01:26.364Z,14.93
2018-06-01T18:03:53.828Z,15.63
2018-06-01T18:06:21.302Z,14.67
2018-06-01T18:08:48.763Z,16.87
2018-06-01T18:11:17.794Z,15.73
2018-06-01T18:13:45.360Z,15.80
2018-06-01T18:16:12.826Z,15.97
2018-06-01T18:18:46.262Z,15.60
2018-06-01T18:21:13.828Z,15.90
2018-06-01T18:23:41.395Z,16.23
2018-06-01T18:26:08.850Z,15.60
2018-06-01T18:28:36.302Z,14.50
2018-06-01T18:31:03.813Z,15.37
2018-06-01T18:33:31.260Z,19.67
2018-06-01T18:35:58.722Z,17.73
2018-06-01T18:38:26.183Z,18.33
2018-06-01T18:40:53.662Z,17.90
2018-06-01T18:43:21.143Z,17.50
2018-06-01T18:45:48.603Z,20.17
2018-06-01T18:48:16.163Z,18.90
2018-06-01T18:50:43.629Z,19.20
2018-06-01T18:53:11.080Z,18.37
2018-06-01T18:55:38.547Z,19.93
2018-06-01T18:58:06.020Z,19.07
2018-06-01T19:00:34.253Z,17.90
2018-06-01T19:03:01.720Z,16.90
2018-06-01T19:05:29.174Z,16.20
2018-06-01T19:07:56.639Z,17.00
2018-06-01T19:10:24.114Z,18.30
2018-06-01T19:12:51.573Z,17.70
2018-06-01T19:15:19.044Z,20.97
2018-06-01T19:17:46.675Z,18.47
2018-06-01T19:20:14.138Z,18.37
2018-06-01T19:22:42.437Z,17.67
2018-06-01T19:25:09.898Z,19.50
2018-06-01T19:27:38.141Z,18.33
2018-06-01T19:30:05.608Z,17.37
2018-06-01T19:32:33.066Z,22.13
2018-06-01T19:35:00.527Z,22.57
2018-06-01T19:37:28.083Z,20.90
2018-06-01T19:39:55.561Z,25.53
2018-06-01T19:42:23.732Z,22.57
2018-06-01T19:44:51.353Z,23.90
2018-06-01T19:47:18.843Z,25.50
2018-06-01T19:49:46.474Z,24.57
2018-06-01T19:52:13.968Z,24.00
2018-06-01T19:54:41.423Z,25.57
2018-06-01T19:57:08.988Z,26.97
2018-06-01T19:59:36.572Z,25.80
2018-06-01T20:02:03.996Z,24.37
2018-06-01T20:04:31.451Z,23.53
2018-06-01T20:06:59.033Z,23.93
2018-06-01T20:09:26.492Z,22.40
2018-06-01T20:11:54.037Z,22.10
2018-06-01T20:14:21.498Z,22.63
2018-06-01T20:16:49.054Z,25.70
2018-06-01T20:19:16.516Z,23.00
2018-06-01T20:21:44.081Z,23.53
2018-06-01T20:24:11.631Z,21.43
2018-06-01T20:26:39.096Z,19.40
2018-06-01T20:29:06.552Z,20.07
2018-06-01T20:31:34.026Z,18.00
2018-06-01T20:34:01.484Z,15.80
2018-06-01T20:36:29.040Z,15.07
2018-06-01T20:38:56.495Z,12.70
2018-06-01T20:41:23.970Z,13.53
2018-06-01T20:43:51.430Z,10.40
2018-06-01T20:46:18.891Z,11.03
2018-06-01T20:48:46.352Z,10.13
2018-06-01T20:51:13.819Z,9.77
2018-06-01T20:53:42.041Z,8.77
2018-06-01T20:56:09.622Z,10.80
2018-06-01T20:58:37.124Z,11.83
2018-06-01T21:01:05.520Z,12.90
2018-06-01T21:03:33.035Z,11.00
2018-06-01T21:06:00.493Z,12.47
2018-06-01T21:08:29.460Z,13.03
2018-06-01T21:10:56.923Z,11.73
2018-06-01T21:13:24.385Z,13.00
2018-06-01T21:15:51.854Z,12.13
2018-06-01T21:18:19.323Z,13.37
2018-06-01T21:20:47.579Z,14.87
2018-06-01T21:23:15.030Z,13.90
2018-06-01T21:25:42.507Z,14.57
2018-06-01T21:28:09.971Z,14.50
2018-06-01T21:30:37.528Z,14.13
2018-06-01T21:33:04.991Z,15.37
2018-06-01T21:35:32.461Z,14.17
2018-06-01T21:37:59.967Z,5.47
2018-06-01T21:40:27.416Z,4.10
2018-06-01T21:42:54.936Z,3.80
2018-06-01T21:45:22.399Z,3.57
2018-06-01T21:47:49.966Z,3.23
2018-06-01T21:50:17.494Z,3.03
2018-06-01T21:52:44.950Z,3.30
2018-06-01T21:55:12.417Z,2.57
2018-06-01T21:57:39.880Z,3.13
2018-06-01T22:00:07.336Z,3.30
2018-06-01T22:02:34.800Z,2.80
2018-06-01T22:05:02.352Z,3.40
2018-06-01T22:07:29.903Z,3.40
2018-06-01T22:09:57.368Z,3.33
2018-06-01T22:12:24.832Z,3.00
2018-06-01T22:14:52.280Z,2.97
2018-06-01T22:17:19.744Z,3.20
2018-06-01T22:19:47.197Z,3.33
2018-06-01T22:22:14.664Z,2.70
2018-06-01T22:24:42.118Z,2.30
2018-06-01T22:27:09.583Z,2.33
2018-06-01T22:29:37.104Z,2.43
2018-06-01T22:32:04.544Z,3.10
2018-06-01T22:34:32.065Z,2.63
2018-06-01T22:36:59.541Z,3.00
2018-06-01T22:39:26.987Z,2.67
2018-06-01T22:41:54.443Z,3.33
2018-06-01T22:44:21.891Z,2.90
2018-06-01T22:46:49.359Z,2.93
2018-06-01T22:49:16.802Z,3.10
2018-06-01T22:51:44.264Z,2.63
2018-06-01T22:54:11.716Z,3.07
2018-06-01T22:56:39.171Z,2.30
2018-06-01T22:59:06.641Z,2.57
2018-06-01T23:01:34.098Z,2.03
2018-06-01T23:04:01.551Z,2.30
2018-06-01T23:06:29.107Z,2.20
2018-06-01T23:08:56.570Z,2.70
2018-06-01T23:11:24.033Z,2.63
2018-06-01T23:13:51.603Z,2.30
2018-06-01T23:16:19.065Z,2.80
2018-06-01T23:18:46.614Z,2.73
2018-06-01T23:21:14.071Z,2.50
2018-06-01T23:23:41.524Z,2.50
2018-06-01T23:26:08.988Z,2.70
2018-06-01T23:28:36.445Z,2.63
2018-06-01T23:31:03.912Z,2.53
2018-06-01T23:33:31.350Z,3.13
2018-06-01T23:35:58.819Z,2.87
2018-06-01T23:38:26.271Z,3.30
2018-06-01T23:40:53.730Z,2.80
2018-06-01T23:43:21.186Z,3.53
2018-06-01T23:45:48.724Z,2.70
2018-06-01T23:48:16.176Z,2.70
2018-06-01T23:50:43.676Z,3.10
2018-06-01T23:53:11.141Z,2.80
2018-06-01T23:55:38.682Z,2.33
2018-06-01T23:58:06.139Z,3.30
